PATA/TAL METAR and TAF weather

Enter ICAO airport designator
Station Type Date Time Source
PATA METAR 2018/12/13 06:52 UTC NOAA

PATA 130652Z AUTO 09006KT 8SM OVC022 M16/M19 A2937 RMK AO2 SLP955 T11561194 TSNO PNO


Station Type Date Time Source
PATA Decoded METAR 2018/12/13 06:52 UTC NOAA

TANANA CALHOUN MEMORIAL AIRPORT , AK, United States (PATA) 65-10N 152-06W 67M
Dec 13, 2018 - 01:52 AM EST / 2018.12.13 0652 UTC
Wind: from the E (090 degrees) at 7 MPH (6 KT):0
Visibility: 8 mile(s):0
Sky conditions: overcast
Temperature: 3.9 F (-15.6 C)
Windchill: -7 F (-22 C):2
Dew Point: -2.9 F (-19.4 C)
Relative Humidity: 72%
Pressure (altimeter): 29.37 in. Hg (994 hPa)
ob: PATA 130652Z AUTO 09006KT 8SM OVC022 M16/M19 A2937 RMK AO2 SLP955 T11561194 TSNO PNO
cycle: 7

Station Type Date Time Source
PATA TAF 2018/12/13 06:27 UTC NOAA

TAF PATA 130525Z 1306/1406 09004KT 6SM BR VCSH SCT015 BKN025 OVC035
FM130900 09004KT 6SM -SN BR BKN025 OVC035
FM131800 09004KT P6SM VCSH SCT025 BKN035 OVC050


Example: see airport list